createdAt,value
2023-01-17T00:00:20.180Z,978.00
2023-01-17T00:01:20.135Z,977.91
2023-01-17T00:02:20.234Z,977.92
2023-01-17T00:03:20.106Z,977.85
2023-01-17T00:04:20.134Z,977.89
2023-01-17T00:05:20.086Z,977.89
2023-01-17T00:06:20.138Z,977.90
2023-01-17T00:07:20.066Z,977.94
2023-01-17T00:08:20.049Z,977.91
2023-01-17T00:09:26.561Z,977.88
2023-01-17T00:10:20.033Z,977.95
2023-01-17T00:11:20.005Z,977.91
2023-01-17T00:12:20.041Z,977.97
2023-01-17T00:13:19.996Z,977.93
2023-01-17T00:14:19.978Z,977.94
2023-01-17T00:15:20.076Z,978.00
2023-01-17T00:16:20.076Z,977.92
2023-01-17T00:17:19.938Z,977.92
2023-01-17T00:18:19.965Z,977.97
2023-01-17T00:19:19.918Z,978.26
2023-01-17T00:20:20.322Z,978.20
2023-01-17T00:21:19.929Z,978.19
2023-01-17T00:22:19.902Z,978.07
2023-01-17T00:23:19.890Z,978.11
2023-01-17T00:24:19.912Z,978.16
2023-01-17T00:25:19.873Z,978.25
2023-01-17T00:26:19.880Z,978.27
2023-01-17T00:27:19.860Z,978.22
2023-01-17T00:28:19.847Z,978.22
2023-01-17T00:29:26.445Z,978.25
2023-01-17T00:30:19.823Z,978.26
2023-01-17T00:31:19.820Z,978.22
2023-01-17T00:32:19.823Z,978.23
2023-01-17T00:33:19.773Z,978.17
2023-01-17T00:34:19.832Z,978.22
2023-01-17T00:35:19.773Z,978.19
2023-01-17T00:36:19.752Z,978.20
2023-01-17T00:37:19.817Z,978.28
2023-01-17T00:38:19.720Z,978.35
2023-01-17T00:39:19.730Z,978.29
2023-01-17T00:40:19.706Z,978.34
2023-01-17T00:41:19.678Z,978.21
2023-01-17T00:42:19.675Z,978.44
2023-01-17T00:43:19.709Z,978.46
2023-01-17T00:44:19.657Z,978.49
2023-01-17T00:45:19.640Z,978.43
2023-01-17T00:46:19.686Z,978.45
2023-01-17T00:47:19.623Z,978.41
2023-01-17T00:48:19.621Z,978.39
2023-01-17T00:49:26.139Z,978.47
2023-01-17T00:50:19.606Z,978.45
2023-01-17T00:51:19.594Z,978.58
2023-01-17T00:52:19.587Z,978.54
2023-01-17T00:53:19.553Z,978.48
2023-01-17T00:54:19.579Z,978.50
2023-01-17T00:55:19.594Z,978.53
2023-01-17T00:56:19.546Z,978.50
2023-01-17T00:57:19.538Z,978.61
2023-01-17T00:58:19.532Z,978.59
2023-01-17T00:59:19.490Z,978.56
2023-01-17T01:00:19.485Z,978.65
2023-01-17T01:01:19.659Z,978.64
2023-01-17T01:02:19.518Z,978.73
2023-01-17T01:03:19.455Z,978.73
2023-01-17T01:04:19.440Z,978.70
2023-01-17T01:05:19.446Z,978.75
2023-01-17T01:06:19.411Z,978.79
2023-01-17T01:07:19.419Z,978.81
2023-01-17T01:08:19.471Z,978.83
2023-01-17T01:09:25.917Z,978.85
2023-01-17T01:10:19.495Z,978.82
2023-01-17T01:11:19.358Z,978.84
2023-01-17T01:12:19.375Z,978.82
2023-01-17T01:13:19.324Z,978.85
2023-01-17T01:14:19.339Z,978.87
2023-01-17T01:15:19.331Z,978.92
2023-01-17T01:16:19.403Z,978.94
2023-01-17T01:17:19.279Z,979.04
2023-01-17T01:18:19.305Z,978.95
2023-01-17T01:19:19.283Z,979.05
2023-01-17T01:20:19.355Z,979.05
2023-01-17T01:21:19.345Z,978.99
2023-01-17T01:22:19.277Z,979.01
2023-01-17T01:23:19.266Z,979.00
2023-01-17T01:24:19.221Z,979.04
2023-01-17T01:25:19.226Z,979.15
2023-01-17T01:26:19.203Z,979.19
2023-01-17T01:27:19.175Z,979.26
2023-01-17T01:28:19.192Z,979.17
2023-01-17T01:29:19.180Z,979.20
2023-01-17T01:30:19.164Z,979.14
2023-01-17T01:31:19.208Z,979.15
2023-01-17T01:32:19.132Z,979.18
2023-01-17T01:33:19.143Z,979.11
2023-01-17T01:34:19.131Z,979.15
2023-01-17T01:35:19.110Z,979.21
2023-01-17T01:36:19.125Z,979.30
2023-01-17T01:37:19.087Z,979.16
2023-01-17T01:38:19.103Z,979.30
2023-01-17T01:39:19.118Z,979.31
2023-01-17T01:40:19.057Z,979.29
2023-01-17T01:41:19.042Z,979.41
2023-01-17T01:42:19.029Z,979.41
2023-01-17T01:43:19.032Z,979.37
2023-01-17T01:44:18.989Z,979.47
2023-01-17T01:45:19.021Z,979.49
2023-01-17T01:46:18.978Z,979.52
2023-01-17T01:47:18.975Z,979.54
2023-01-17T01:48:18.960Z,979.53
2023-01-17T01:49:18.954Z,979.67
2023-01-17T01:50:18.931Z,979.73
2023-01-17T01:51:18.949Z,979.59
2023-01-17T01:52:18.925Z,979.67
2023-01-17T01:53:18.921Z,979.60
2023-01-17T01:54:18.906Z,979.66
2023-01-17T01:55:18.897Z,979.64
2023-01-17T01:56:18.860Z,979.64
2023-01-17T01:57:18.868Z,979.68
2023-01-17T01:58:18.896Z,979.70
2023-01-17T01:59:18.832Z,979.70
2023-01-17T02:00:18.829Z,979.73
2023-01-17T02:01:18.948Z,979.76
2023-01-17T02:02:18.806Z,979.65
2023-01-17T02:03:18.793Z,979.74
2023-01-17T02:04:18.781Z,979.81
2023-01-17T02:05:18.788Z,979.79
2023-01-17T02:06:18.775Z,979.77
2023-01-17T02:07:18.768Z,979.83
2023-01-17T02:08:18.763Z,979.82
2023-01-17T02:09:25.315Z,979.81
2023-01-17T02:10:18.741Z,979.91
2023-01-17T02:11:18.698Z,979.86
2023-01-17T02:12:18.704Z,979.82
2023-01-17T02:13:18.700Z,979.87
2023-01-17T02:14:18.688Z,979.84
2023-01-17T02:15:18.653Z,979.85
2023-01-17T02:16:18.740Z,979.95
2023-01-17T02:17:18.643Z,979.92
2023-01-17T02:18:18.630Z,980.03
2023-01-17T02:19:18.614Z,979.97
2023-01-17T02:20:18.611Z,979.92
2023-01-17T02:21:18.611Z,979.99
2023-01-17T02:22:18.593Z,979.96
2023-01-17T02:23:18.580Z,980.05
2023-01-17T02:24:18.593Z,980.07
2023-01-17T02:25:18.579Z,980.16
2023-01-17T02:26:18.570Z,980.08
2023-01-17T02:27:18.542Z,980.09
2023-01-17T02:28:18.747Z,980.14
2023-01-17T02:29:18.512Z,980.09
2023-01-17T02:30:18.538Z,980.13
2023-01-17T02:31:18.507Z,980.12
2023-01-17T02:32:18.500Z,980.09
2023-01-17T02:33:18.474Z,980.15
2023-01-17T02:34:18.486Z,980.11
2023-01-17T02:35:18.468Z,980.16
2023-01-17T02:36:18.498Z,980.10
2023-01-17T02:37:18.461Z,980.22
2023-01-17T02:38:18.422Z,980.21
2023-01-17T02:39:24.943Z,980.26
2023-01-17T02:40:18.497Z,980.27
2023-01-17T02:41:18.389Z,980.40
2023-01-17T02:42:18.388Z,980.38
2023-01-17T02:43:18.382Z,980.39
2023-01-17T02:44:18.345Z,980.28
2023-01-17T02:45:18.349Z,980.35
2023-01-17T02:46:18.344Z,980.33
2023-01-17T02:47:18.304Z,980.41
2023-01-17T02:48:18.314Z,980.38
2023-01-17T02:49:18.288Z,980.34
2023-01-17T02:50:18.302Z,980.50
2023-01-17T02:51:18.291Z,980.43
2023-01-17T02:52:18.267Z,980.43
2023-01-17T02:53:18.239Z,980.40
2023-01-17T02:54:18.263Z,980.43
2023-01-17T02:55:18.239Z,980.36
2023-01-17T02:56:18.240Z,980.46
2023-01-17T02:57:18.224Z,980.45
2023-01-17T02:58:18.205Z,980.45
2023-01-17T02:59:24.702Z,980.53
2023-01-17T03:00:18.198Z,980.49
2023-01-17T03:01:18.322Z,980.64
2023-01-17T03:02:18.337Z,980.59
2023-01-17T03:03:18.161Z,980.61
2023-01-17T03:04:18.128Z,980.58
2023-01-17T03:05:20.279Z,980.56
2023-01-17T03:06:18.126Z,980.58
2023-01-17T03:07:18.089Z,980.58
2023-01-17T03:08:18.099Z,980.67
2023-01-17T03:09:18.091Z,980.65
2023-01-17T03:10:18.078Z,980.56
2023-01-17T03:50:26.073Z,980.96
2023-01-17T03:50:30.884Z,980.99
2023-01-17T03:51:30.889Z,981.07
2023-01-17T03:52:30.907Z,980.95
2023-01-17T03:53:30.842Z,981.02
2023-01-17T03:54:30.838Z,981.06
2023-01-17T03:55:30.848Z,981.08
2023-01-17T03:56:30.822Z,981.13
2023-01-17T03:57:30.800Z,981.05
2023-01-17T03:58:30.835Z,981.03
2023-01-17T03:59:30.795Z,981.03
2023-01-17T04:00:30.784Z,981.08
2023-01-17T04:01:30.939Z,981.01
2023-01-17T04:02:30.795Z,981.08
2023-01-17T04:03:30.761Z,981.14
2023-01-17T04:04:30.763Z,980.97
2023-01-17T04:05:30.723Z,981.08
2023-01-17T04:06:30.730Z,980.97
2023-01-17T04:07:30.714Z,981.00
2023-01-17T04:08:30.690Z,981.01
2023-01-17T04:09:37.197Z,980.94
2023-01-17T04:10:30.678Z,981.04
2023-01-17T04:11:30.656Z,981.09
2023-01-17T04:12:30.664Z,981.02
2023-01-17T04:13:30.650Z,981.03
2023-01-17T04:14:30.661Z,981.07
2023-01-17T04:15:30.659Z,981.03
2023-01-17T04:16:30.644Z,981.00
2023-01-17T04:17:30.590Z,981.02
2023-01-17T04:18:31.352Z,981.10
2023-01-17T04:19:30.567Z,981.02
2023-01-17T04:20:30.629Z,981.06
2023-01-17T04:21:30.557Z,981.06
2023-01-17T04:22:30.541Z,981.06
2023-01-17T04:23:30.545Z,980.99
2023-01-17T04:24:30.510Z,981.04
2023-01-17T04:25:30.511Z,981.01
2023-01-17T04:26:30.520Z,980.99
2023-01-17T04:27:30.489Z,980.99
2023-01-17T04:28:30.496Z,980.93
2023-01-17T04:29:37.005Z,980.97
2023-01-17T04:30:30.519Z,980.94
2023-01-17T04:31:30.534Z,980.93
2023-01-17T04:32:30.461Z,980.94
2023-01-17T04:33:30.409Z,980.99
2023-01-17T04:34:30.438Z,980.96
2023-01-17T04:35:30.455Z,980.98
2023-01-17T04:36:30.409Z,981.00
2023-01-17T04:37:30.388Z,980.89
2023-01-17T04:38:30.409Z,980.95
2023-01-17T04:39:30.373Z,980.92
2023-01-17T04:40:30.362Z,980.97
2023-01-17T04:41:30.344Z,980.99
2023-01-17T04:42:30.349Z,981.04
2023-01-17T04:43:30.325Z,980.98
2023-01-17T04:44:30.356Z,981.03
2023-01-17T04:45:30.336Z,981.04
2023-01-17T04:46:30.318Z,981.12
2023-01-17T04:47:30.303Z,981.03
2023-01-17T04:48:30.300Z,981.10
2023-01-17T04:49:36.791Z,981.10
2023-01-17T04:50:30.273Z,981.15
2023-01-17T04:51:30.300Z,981.17
2023-01-17T04:52:30.239Z,981.21
2023-01-17T04:53:30.219Z,981.23
2023-01-17T04:54:30.211Z,981.25
2023-01-17T04:55:30.178Z,981.21
2023-01-17T04:56:30.208Z,981.24
2023-01-17T04:57:30.201Z,981.15
2023-01-17T04:58:30.178Z,981.19
2023-01-17T04:59:30.143Z,981.24
2023-01-17T05:00:30.139Z,981.22
2023-01-17T05:01:30.240Z,981.17
2023-01-17T05:02:30.187Z,981.26
2023-01-17T05:03:30.118Z,981.23
2023-01-17T05:04:30.103Z,981.25
2023-01-17T05:05:30.089Z,981.24
2023-01-17T05:06:30.062Z,981.27
2023-01-17T05:07:30.061Z,981.22
2023-01-17T05:08:30.074Z,981.27
2023-01-17T05:09:30.027Z,981.28
2023-01-17T05:10:30.049Z,981.24
2023-01-17T05:11:30.037Z,981.29
2023-01-17T05:12:30.035Z,981.28
2023-01-17T05:13:30.000Z,981.27
2023-01-17T05:14:29.971Z,981.29
2023-01-17T05:15:29.993Z,981.24
2023-01-17T05:16:29.968Z,981.22
2023-01-17T05:17:29.971Z,981.26
2023-01-17T05:18:29.931Z,981.28
2023-01-17T05:19:36.438Z,981.27
2023-01-17T05:20:29.937Z,981.25
2023-01-17T05:21:29.885Z,981.24
2023-01-17T05:22:29.953Z,981.21
2023-01-17T05:23:29.890Z,981.22
2023-01-17T05:24:29.873Z,981.25
2023-01-17T05:25:29.863Z,981.20
2023-01-17T05:26:29.886Z,981.20
2023-01-17T05:27:29.844Z,981.25
2023-01-17T05:28:29.832Z,981.24
2023-01-17T05:29:29.829Z,981.28
2023-01-17T05:30:29.826Z,981.32
2023-01-17T05:31:29.821Z,981.23
2023-01-17T05:32:29.811Z,981.32
2023-01-17T05:33:29.801Z,981.30
2023-01-17T05:34:29.783Z,981.26
2023-01-17T05:35:29.806Z,981.27
2023-01-17T05:36:29.757Z,981.27
2023-01-17T05:37:29.719Z,981.25
2023-01-17T05:38:29.745Z,981.26
2023-01-17T05:39:36.800Z,981.25
2023-01-17T05:40:29.694Z,981.34
2023-01-17T05:41:29.668Z,981.32
2023-01-17T05:42:29.694Z,981.37
2023-01-17T05:43:29.652Z,981.36
2023-01-17T05:44:29.662Z,981.39
2023-01-17T05:45:29.669Z,981.45
2023-01-17T05:46:29.702Z,981.40
2023-01-17T05:47:29.625Z,981.43
2023-01-17T05:48:29.608Z,981.42
2023-01-17T05:49:29.589Z,981.44
2023-01-17T05:50:29.596Z,981.47
2023-01-17T05:51:29.570Z,981.47
2023-01-17T05:52:29.557Z,981.48
2023-01-17T05:53:29.611Z,981.49
2023-01-17T05:54:29.593Z,981.51
2023-01-17T05:55:29.566Z,981.56
2023-01-17T05:56:29.518Z,981.56
2023-01-17T05:57:29.518Z,981.50
2023-01-17T05:58:29.505Z,981.55
2023-01-17T05:59:37.620Z,981.55
2023-01-17T06:00:29.476Z,981.56
2023-01-17T06:01:29.481Z,981.62
2023-01-17T06:02:29.493Z,981.57
2023-01-17T06:03:29.467Z,981.58
2023-01-17T06:04:29.508Z,981.63
2023-01-17T06:05:29.448Z,981.61
2023-01-17T06:06:29.453Z,981.61
2023-01-17T06:07:29.394Z,981.64
2023-01-17T06:08:29.414Z,981.64
2023-01-17T06:09:29.388Z,981.61
2023-01-17T06:10:29.365Z,981.67
2023-01-17T06:11:29.347Z,981.64
2023-01-17T06:12:29.352Z,981.70
2023-01-17T06:13:29.332Z,981.64
2023-01-17T06:14:29.359Z,981.63
2023-01-17T06:15:29.327Z,981.63
2023-01-17T06:16:29.334Z,981.64
2023-01-17T06:17:29.307Z,981.66
2023-01-17T06:18:29.298Z,981.62
2023-01-17T06:19:35.812Z,981.69
2023-01-17T06:20:29.277Z,981.67
2023-01-17T06:21:29.250Z,981.76
2023-01-17T06:22:29.261Z,981.72
2023-01-17T06:23:29.235Z,981.70
2023-01-17T06:24:29.291Z,981.72
2023-01-17T06:25:29.197Z,981.73
2023-01-17T06:26:29.201Z,981.69
2023-01-17T06:27:29.216Z,981.76
2023-01-17T06:28:29.197Z,981.72
2023-01-17T06:29:29.160Z,981.73
2023-01-17T06:30:29.162Z,981.73
2023-01-17T06:31:29.190Z,981.76
2023-01-17T06:32:29.157Z,981.77
2023-01-17T06:33:29.150Z,981.79
2023-01-17T06:34:29.117Z,981.77
2023-01-17T06:35:29.094Z,981.84
2023-01-17T06:36:29.101Z,981.77
2023-01-17T06:37:29.074Z,981.80
2023-01-17T06:38:29.064Z,981.85
2023-01-17T06:39:29.057Z,981.82
2023-01-17T06:40:29.056Z,981.77
2023-01-17T06:41:29.040Z,981.80
2023-01-17T06:42:29.028Z,981.79
2023-01-17T06:43:29.009Z,981.77
2023-01-17T06:44:29.016Z,981.76
2023-01-17T06:45:28.998Z,981.76
2023-01-17T06:46:34.062Z,981.82
2023-01-17T06:47:28.980Z,981.77
2023-01-17T06:48:28.948Z,981.77
2023-01-17T06:49:35.556Z,981.81
2023-01-17T06:50:28.929Z,981.87
2023-01-17T06:51:28.969Z,981.81
2023-01-17T06:52:28.921Z,981.86
2023-01-17T06:53:28.916Z,981.86
2023-01-17T06:54:28.907Z,981.88
2023-01-17T06:55:28.964Z,981.85
2023-01-17T06:56:29.092Z,981.91
2023-01-17T06:57:29.085Z,981.91
2023-01-17T06:58:28.867Z,981.88
2023-01-17T06:59:28.857Z,981.95
2023-01-17T07:00:29.426Z,981.93
2023-01-17T07:01:28.945Z,981.93
2023-01-17T07:02:28.801Z,981.97
2023-01-17T07:03:29.797Z,981.94
2023-01-17T07:04:28.783Z,981.99
2023-01-17T07:05:28.792Z,981.97
2023-01-17T07:06:28.863Z,981.95
2023-01-17T07:07:28.768Z,981.92
2023-01-17T07:08:28.737Z,981.99
2023-01-17T07:09:35.480Z,981.95
2023-01-17T07:10:28.759Z,981.94
2023-01-17T07:11:28.730Z,981.94
2023-01-17T07:12:28.745Z,981.93
2023-01-17T07:13:29.501Z,981.94
2023-01-17T07:14:28.679Z,981.97
2023-01-17T07:15:28.663Z,981.98
2023-01-17T07:16:28.917Z,981.97
2023-01-17T07:17:28.659Z,981.95
2023-01-17T07:18:29.042Z,981.95
2023-01-17T07:19:29.544Z,981.95
2023-01-17T07:20:30.569Z,981.95
2023-01-17T07:21:28.618Z,981.93
2023-01-17T07:22:28.600Z,981.93
2023-01-17T07:23:28.803Z,981.92
2023-01-17T07:24:29.203Z,981.94
2023-01-17T07:25:28.580Z,981.94
2023-01-17T07:26:28.597Z,981.97
2023-01-17T07:27:29.231Z,981.97
2023-01-17T07:28:28.542Z,981.93
2023-01-17T07:29:28.526Z,981.95
2023-01-17T07:30:28.542Z,981.97
2023-01-17T07:31:28.592Z,981.92
2023-01-17T07:32:28.499Z,981.92
2023-01-17T07:33:28.468Z,981.87
2023-01-17T07:34:28.454Z,981.90
2023-01-17T07:35:28.472Z,981.81
2023-01-17T07:36:28.437Z,981.91
2023-01-17T07:37:28.926Z,981.92
2023-01-17T07:38:28.411Z,981.90
2023-01-17T07:39:28.402Z,981.91
2023-01-17T07:40:28.397Z,981.96
2023-01-17T07:41:28.392Z,981.96
2023-01-17T07:42:29.612Z,981.97
2023-01-17T07:43:28.369Z,981.93
2023-01-17T07:44:28.383Z,981.98
2023-01-17T07:45:28.348Z,981.98
2023-01-17T07:46:28.405Z,981.99
2023-01-17T07:47:28.347Z,982.00
2023-01-17T07:48:28.330Z,981.99
2023-01-17T07:49:35.026Z,982.02
2023-01-17T07:50:28.322Z,982.04
2023-01-17T07:51:29.036Z,982.06
2023-01-17T07:52:28.285Z,982.04
2023-01-17T07:53:28.319Z,982.05
2023-01-17T07:54:31.116Z,982.03
2023-01-17T07:55:28.243Z,982.06
2023-01-17T07:56:28.430Z,982.05
2023-01-17T07:57:28.264Z,982.03
2023-01-17T07:58:31.507Z,982.10
2023-01-17T07:59:28.194Z,982.09
2023-01-17T08:00:28.200Z,982.10
2023-01-17T08:01:28.351Z,982.07
2023-01-17T08:02:29.325Z,982.06
2023-01-17T08:03:28.228Z,982.07
2023-01-17T08:04:28.148Z,982.07
2023-01-17T08:05:28.799Z,982.04
2023-01-17T08:06:28.135Z,982.04
2023-01-17T08:07:28.111Z,982.00
2023-01-17T08:08:28.115Z,982.00
2023-01-17T08:09:28.110Z,982.01
2023-01-17T08:10:28.070Z,981.96
2023-01-17T08:11:28.063Z,982.00
2023-01-17T08:12:28.046Z,982.00
2023-01-17T08:13:29.858Z,982.03
2023-01-17T08:14:28.040Z,982.00
2023-01-17T08:15:28.547Z,982.02
2023-01-17T08:16:28.063Z,982.06
2023-01-17T08:17:27.984Z,982.00
2023-01-17T08:18:27.997Z,982.05
2023-01-17T08:19:27.996Z,982.07
2023-01-17T08:20:28.368Z,982.00
2023-01-17T08:21:27.977Z,981.99
2023-01-17T08:22:27.931Z,982.00
2023-01-17T08:23:27.931Z,981.99
2023-01-17T08:24:27.942Z,982.00
2023-01-17T08:25:27.933Z,981.99
2023-01-17T08:26:28.118Z,982.01
2023-01-17T08:27:27.911Z,982.03
2023-01-17T08:28:27.908Z,981.94
2023-01-17T08:29:34.455Z,981.93
2023-01-17T08:30:27.871Z,981.91
2023-01-17T08:31:27.883Z,981.92
2023-01-17T08:32:27.840Z,981.86
2023-01-17T08:33:27.847Z,981.87
2023-01-17T08:34:27.819Z,981.86
2023-01-17T08:35:27.855Z,981.87
2023-01-17T08:36:27.835Z,981.86
2023-01-17T08:37:28.005Z,981.86
2023-01-17T08:38:27.753Z,981.86
2023-01-17T08:39:27.757Z,981.87
2023-01-17T08:40:27.731Z,981.91
2023-01-17T08:41:27.998Z,981.85
2023-01-17T08:42:27.738Z,981.91
2023-01-17T08:43:28.570Z,981.89
2023-01-17T08:44:27.696Z,981.87
2023-01-17T08:45:27.819Z,981.88
2023-01-17T08:46:31.390Z,981.92
2023-01-17T08:47:29.325Z,981.88
2023-01-17T08:48:27.663Z,981.92
2023-01-17T08:49:28.097Z,981.87
2023-01-17T08:50:27.627Z,981.90
2023-01-17T08:51:27.650Z,981.95
2023-01-17T08:52:27.616Z,981.94
2023-01-17T08:53:27.633Z,981.97
2023-01-17T08:54:27.598Z,981.92
2023-01-17T08:55:27.605Z,981.98
2023-01-17T08:56:27.606Z,981.99
2023-01-17T08:57:27.584Z,981.93
2023-01-17T08:58:29.213Z,981.93
2023-01-17T08:59:27.610Z,981.98
2023-01-17T09:00:27.545Z,982.02
2023-01-17T09:01:27.912Z,982.00
2023-01-17T09:02:28.081Z,981.99
2023-01-17T09:03:27.520Z,981.98
2023-01-17T09:04:27.523Z,982.02
2023-01-17T09:05:27.481Z,981.99
2023-01-17T09:06:27.469Z,982.01
2023-01-17T09:07:27.466Z,982.03
2023-01-17T09:08:27.662Z,982.03
2023-01-17T09:09:27.443Z,982.06
2023-01-17T09:10:27.413Z,982.01
2023-01-17T09:11:27.401Z,982.05
2023-01-17T09:12:27.418Z,982.02
2023-01-17T09:13:27.384Z,982.07
2023-01-17T09:14:27.394Z,982.04
2023-01-17T09:15:27.387Z,982.01
2023-01-17T09:16:27.396Z,982.04
2023-01-17T09:17:27.356Z,981.99
2023-01-17T09:18:27.355Z,981.96
2023-01-17T09:19:27.316Z,981.95
2023-01-17T09:20:27.322Z,981.94
2023-01-17T09:21:27.293Z,981.95
2023-01-17T09:22:27.290Z,981.90
2023-01-17T09:23:28.325Z,981.92
2023-01-17T09:24:27.281Z,981.92
2023-01-17T09:25:27.478Z,981.91
2023-01-17T09:26:27.475Z,981.95
2023-01-17T09:27:27.242Z,981.93
2023-01-17T09:28:27.257Z,981.98
2023-01-17T09:31:25.039Z,981.97
2023-01-17T09:32:25.971Z,981.94
2023-01-17T09:33:25.917Z,981.91
2023-01-17T09:34:25.934Z,981.95
2023-01-17T09:35:25.905Z,981.90
2023-01-17T09:36:25.898Z,981.93
2023-01-17T09:37:25.861Z,981.88
2023-01-17T09:38:25.881Z,981.90
2023-01-17T09:39:25.870Z,981.92
2023-01-17T09:40:25.837Z,981.93
2023-01-17T09:41:25.859Z,981.93
2023-01-17T09:42:25.843Z,981.94
2023-01-17T09:43:25.800Z,981.95
2023-01-17T09:44:25.823Z,981.91
2023-01-17T09:45:25.795Z,981.96
2023-01-17T09:46:25.793Z,981.96
2023-01-17T09:47:25.799Z,981.90
2023-01-17T09:48:25.779Z,981.93
2023-01-17T09:49:32.281Z,982.02
2023-01-17T09:50:25.739Z,981.92
2023-01-17T09:51:25.797Z,981.89
2023-01-17T09:52:25.711Z,981.94
2023-01-17T09:53:25.717Z,981.94
2023-01-17T09:54:25.725Z,981.99
2023-01-17T09:55:25.664Z,981.98
2023-01-17T09:56:25.691Z,981.98
2023-01-17T09:57:25.653Z,981.98
2023-01-17T09:58:25.642Z,981.98
2023-01-17T09:59:32.754Z,981.96
2023-01-17T10:00:25.638Z,981.96
2023-01-17T10:01:25.790Z,981.92
2023-01-17T10:02:26.688Z,981.91
2023-01-17T10:03:25.666Z,981.88
2023-01-17T10:04:25.606Z,981.95
2023-01-17T10:05:25.553Z,981.92
2023-01-17T10:06:25.568Z,981.97
2023-01-17T10:07:25.551Z,981.96
2023-01-17T10:08:25.548Z,981.95
2023-01-17T10:09:25.535Z,981.94
2023-01-17T10:10:25.501Z,981.95
2023-01-17T10:11:25.483Z,981.95
2023-01-17T10:12:25.521Z,981.90
2023-01-17T10:13:25.470Z,981.92
2023-01-17T10:14:25.482Z,981.96
2023-01-17T10:15:25.906Z,981.98
2023-01-17T10:16:25.481Z,981.88
2023-01-17T10:17:25.640Z,981.91
2023-01-17T10:18:30.497Z,981.83
2023-01-17T10:20:36.140Z,981.86
2023-01-17T10:21:37.169Z,981.91
2023-01-17T10:22:37.163Z,981.88
2023-01-17T10:23:37.117Z,981.87
2023-01-17T10:24:37.113Z,981.89
2023-01-17T10:25:37.130Z,981.83
2023-01-17T10:26:37.078Z,981.79
2023-01-17T10:27:37.079Z,981.79
2023-01-17T10:28:37.050Z,981.74
2023-01-17T10:29:37.074Z,981.76
2023-01-17T10:30:37.070Z,981.72
2023-01-17T10:31:37.119Z,981.70
2023-01-17T10:32:37.003Z,981.75
2023-01-17T10:33:37.002Z,981.77
2023-01-17T10:34:36.998Z,981.75
2023-01-17T10:35:36.976Z,981.75
2023-01-17T10:36:36.965Z,981.79
2023-01-17T10:37:36.973Z,981.80
2023-01-17T10:38:36.952Z,981.79
2023-01-17T10:39:36.956Z,981.84
2023-01-17T10:40:36.951Z,981.80
2023-01-17T10:41:36.929Z,981.79
2023-01-17T10:42:36.925Z,981.75
2023-01-17T10:43:37.132Z,981.75
2023-01-17T10:44:36.913Z,981.69
2023-01-17T10:45:36.899Z,981.70
2023-01-17T10:46:36.915Z,981.62
2023-01-17T10:47:37.594Z,981.65
2023-01-17T10:48:36.817Z,981.70
2023-01-17T10:49:36.823Z,981.64
2023-01-17T10:50:36.805Z,981.63
2023-01-17T10:51:36.821Z,981.62
2023-01-17T10:52:36.830Z,981.55
2023-01-17T10:55:16.816Z,981.52
2023-01-17T10:55:21.712Z,981.55
2023-01-17T10:56:21.652Z,981.54
2023-01-17T10:57:21.616Z,981.60
2023-01-17T10:58:21.597Z,981.52
2023-01-17T10:59:21.604Z,981.59
2023-01-17T11:00:21.588Z,981.56
2023-01-17T11:01:21.696Z,981.60
2023-01-17T11:02:22.296Z,981.60
2023-01-17T11:03:21.564Z,981.64
2023-01-17T11:04:21.565Z,981.61
2023-01-17T11:05:21.526Z,981.58
2023-01-17T11:06:21.530Z,981.56
2023-01-17T11:07:21.530Z,981.56
2023-01-17T11:08:21.547Z,981.50
2023-01-17T11:09:21.480Z,981.49
2023-01-17T11:10:21.478Z,981.39
2023-01-17T11:11:21.484Z,981.38
2023-01-17T11:12:21.473Z,981.35
2023-01-17T11:13:21.497Z,981.34
2023-01-17T11:14:21.474Z,981.35
2023-01-17T11:15:21.435Z,981.31
2023-01-17T11:16:21.400Z,981.28
2023-01-17T11:17:21.423Z,981.23
2023-01-17T11:18:21.390Z,981.26
2023-01-17T11:19:21.394Z,981.24
2023-01-17T11:20:21.384Z,981.24
2023-01-17T11:21:21.328Z,981.16
2023-01-17T11:22:21.361Z,981.17
2023-01-17T11:23:21.338Z,981.21
2023-01-17T11:24:21.327Z,981.13
2023-01-17T11:25:21.292Z,981.14
2023-01-17T11:26:21.303Z,981.15
2023-01-17T11:27:21.292Z,981.14
2023-01-17T11:28:21.489Z,981.11
2023-01-17T11:29:22.046Z,981.10
2023-01-17T11:30:21.320Z,981.15
2023-01-17T11:31:21.340Z,981.15
2023-01-17T11:32:21.242Z,981.12
2023-01-17T11:33:21.304Z,981.13
2023-01-17T11:34:21.198Z,981.11
2023-01-17T11:35:21.231Z,981.10
2023-01-17T11:36:21.227Z,981.04
2023-01-17T11:37:21.202Z,980.96
2023-01-17T11:38:21.205Z,981.00
2023-01-17T11:39:28.662Z,981.01
2023-01-17T11:40:21.263Z,980.99
2023-01-17T11:41:21.168Z,980.98
2023-01-17T11:42:21.149Z,981.02
2023-01-17T11:43:21.121Z,980.96
2023-01-17T11:44:21.132Z,981.01
2023-01-17T11:45:21.085Z,980.96
2023-01-17T11:46:21.190Z,980.93
2023-01-17T11:48:31.735Z,980.95
2023-01-17T11:49:32.762Z,980.99
2023-01-17T11:50:32.738Z,980.99
2023-01-17T11:51:32.728Z,980.99
2023-01-17T11:52:32.691Z,980.95
2023-01-17T11:53:32.715Z,980.94
2023-01-17T11:54:32.684Z,980.94
2023-01-17T11:55:32.713Z,980.98
2023-01-17T11:56:32.675Z,980.98
2023-01-17T11:57:32.672Z,980.91
2023-01-17T11:58:32.664Z,980.94
2023-01-17T11:59:32.619Z,980.91
2023-01-17T12:00:32.620Z,980.87
2023-01-17T12:01:32.628Z,980.91
2023-01-17T12:02:32.634Z,980.89
2023-01-17T12:03:32.735Z,980.85
2023-01-17T12:04:32.608Z,980.87
2023-01-17T12:05:32.654Z,980.86
2023-01-17T12:06:32.554Z,980.77
2023-01-17T12:07:32.741Z,980.74
2023-01-17T12:08:32.542Z,980.72
2023-01-17T12:09:32.529Z,980.74
2023-01-17T12:10:32.712Z,980.72
2023-01-17T12:11:32.509Z,980.70
2023-01-17T12:12:32.485Z,980.73
2023-01-17T12:13:32.489Z,980.72
2023-01-17T12:14:32.471Z,980.67
2023-01-17T12:15:32.471Z,980.70
2023-01-17T12:16:32.454Z,980.70
2023-01-17T12:17:32.431Z,980.67
2023-01-17T12:18:32.424Z,980.59
2023-01-17T12:19:32.474Z,980.59
2023-01-17T12:20:32.423Z,980.54
2023-01-17T12:21:32.380Z,980.51
2023-01-17T12:22:32.382Z,980.54
2023-01-17T12:23:32.372Z,980.42
2023-01-17T12:24:32.399Z,980.45
2023-01-17T12:25:32.367Z,980.46
2023-01-17T12:26:32.340Z,980.48
2023-01-17T12:27:33.233Z,980.49
2023-01-17T12:28:32.339Z,980.48
2023-01-17T12:29:38.839Z,980.42
2023-01-17T12:30:32.280Z,980.42
2023-01-17T12:31:32.366Z,980.44
2023-01-17T12:32:32.280Z,980.44
2023-01-17T12:33:32.246Z,980.38
2023-01-17T12:34:32.296Z,980.36
2023-01-17T12:35:32.220Z,980.32
2023-01-17T12:36:32.199Z,980.38
2023-01-17T12:37:32.231Z,980.36
2023-01-17T12:38:33.423Z,980.31
2023-01-17T12:39:32.191Z,980.31
2023-01-17T12:40:32.180Z,980.30
2023-01-17T12:41:32.154Z,980.30
2023-01-17T12:42:32.157Z,980.28
2023-01-17T12:43:32.140Z,980.23
2023-01-17T12:44:32.130Z,980.21
2023-01-17T12:45:32.151Z,980.20
2023-01-17T12:46:32.137Z,980.19
2023-01-17T12:47:32.117Z,980.26
2023-01-17T12:48:32.092Z,980.22
2023-01-17T12:49:38.611Z,980.23
2023-01-17T12:50:32.075Z,980.15
2023-01-17T12:51:32.053Z,980.15
2023-01-17T12:52:32.281Z,980.15
2023-01-17T12:53:32.036Z,980.14
2023-01-17T12:54:32.012Z,980.12
2023-01-17T12:55:32.054Z,980.09
2023-01-17T12:56:32.040Z,980.00
2023-01-17T12:57:31.988Z,980.03
2023-01-17T12:58:31.963Z,980.02
2023-01-17T12:59:31.966Z,980.02
2023-01-17T13:00:31.973Z,979.98
2023-01-17T13:01:32.073Z,980.00
2023-01-17T13:02:32.026Z,980.02
2023-01-17T13:03:31.968Z,980.02
2023-01-17T13:04:31.900Z,980.02
2023-01-17T13:05:31.989Z,980.00
2023-01-17T13:06:32.099Z,979.98
2023-01-17T13:07:32.836Z,979.96
2023-01-17T13:08:31.866Z,979.92
2023-01-17T13:09:31.871Z,979.94
2023-01-17T13:10:32.186Z,979.90
2023-01-17T13:11:31.891Z,979.93